Time;durP1;ratioP1;P1;durP2;ratioP2;P2;SDS_P1;SDS_P2;PMS_P1;PMS_P2;Temp;Humidity;BMP_temperature;BMP_pressure;BME280_temperature;BME280_humidity;BME280_pressure;Samples;Min_cycle;Max_cycle;Signal;HPM_P1;HPM_P2
2023/09/20 00:00:40;;;;;;;;;;;13.60;99.90;;;;;;5083951;28;20121;-73
2023/09/20 00:03:08;;;;;;;;;;;13.50;99.90;;;;;;5088963;28;19925;-73
2023/09/20 00:05:39;;;;;;;;;;;13.50;99.90;;;;;;5084081;28;20145;-73
2023/09/20 00:08:06;;;;;;;;;;;13.50;99.90;;;;;;5084131;28;19921;-73
2023/09/20 00:10:32;;;;;;;;;;;13.50;99.90;;;;;;5087247;28;19987;-73
2023/09/20 00:12:59;;;;;;;;;;;13.50;99.90;;;;;;5088345;28;20138;-73
2023/09/20 00:15:30;;;;;;;;;;;13.50;99.90;;;;;;5088884;28;19991;-73
2023/09/20 00:17:58;;;;;;;;;;;13.50;99.90;;;;;;5086129;28;20146;-72
2023/09/20 00:20:25;;;;;;;;;;;13.40;99.90;;;;;;5086931;28;20153;-72
2023/09/20 00:22:51;;;;;;;;;;;13.40;99.90;;;;;;5087373;28;19971;-73
2023/09/20 00:25:19;;;;;;;;;;;13.40;99.90;;;;;;5083732;28;19928;-73
2023/09/20 00:27:46;;;;;;;;;;;13.40;99.90;;;;;;5083697;28;19934;-72
2023/09/20 00:30:14;;;;;;;;;;;13.50;99.90;;;;;;5083457;28;19920;-73
2023/09/20 00:32:42;;;;;;;;;;;13.40;99.90;;;;;;5082150;28;19960;-73
2023/09/20 00:35:10;;;;;;;;;;;13.40;99.90;;;;;;5083443;28;19952;-73
2023/09/20 00:37:38;;;;;;;;;;;13.30;99.90;;;;;;5088756;28;19979;-73
2023/09/20 00:40:06;;;;;;;;;;;13.30;99.90;;;;;;5083326;28;20343;-73
2023/09/20 00:42:33;;;;;;;;;;;13.30;99.90;;;;;;5083498;28;19966;-73
2023/09/20 00:45:02;;;;;;;;;;;13.30;99.90;;;;;;5083304;28;19987;-73
2023/09/20 00:47:29;;;;;;;;;;;13.30;99.90;;;;;;5086766;28;19927;-73
2023/09/20 00:49:59;;;;;;;;;;;13.30;99.90;;;;;;5083345;28;19927;-73
2023/09/20 00:52:27;;;;;;;;;;;13.20;99.90;;;;;;5083304;28;20194;-73
2023/09/20 00:54:56;;;;;;;;;;;13.20;99.90;;;;;;5083111;28;19921;-72
2023/09/20 00:57:23;;;;;;;;;;;13.20;99.90;;;;;;5088306;28;20099;-72
2023/09/20 00:59:50;;;;;;;;;;;13.20;99.90;;;;;;5086930;28;19988;-72
2023/09/20 01:02:16;;;;;;;;;;;13.10;99.90;;;;;;5090267;28;20152;-72
2023/09/20 01:04:43;;;;;;;;;;;13.10;99.90;;;;;;5083130;28;19920;-73
2023/09/20 01:07:11;;;;;;;;;;;13.00;99.90;;;;;;5083284;28;20265;-73
2023/09/20 01:09:38;;;;;;;;;;;13.00;99.90;;;;;;5086158;28;19988;-72
2023/09/20 01:12:06;;;;;;;;;;;13.00;99.90;;;;;;5090021;28;19920;-72
2023/09/20 01:14:32;;;;;;;;;;;12.90;99.90;;;;;;5082875;28;19920;-73
2023/09/20 01:16:59;;;;;;;;;;;12.90;99.90;;;;;;5083286;28;19955;-73
2023/09/20 01:19:28;;;;;;;;;;;12.80;99.90;;;;;;5083022;28;20111;-72
2023/09/20 01:21:56;;;;;;;;;;;12.80;99.90;;;;;;5083351;28;19920;-73
2023/09/20 01:24:24;;;;;;;;;;;12.80;99.90;;;;;;5083285;28;20154;-73
2023/09/20 01:26:52;;;;;;;;;;;12.80;99.90;;;;;;5083513;28;19928;-73
2023/09/20 01:29:18;;;;;;;;;;;12.80;99.90;;;;;;5080016;28;20210;-73
2023/09/20 01:31:47;;;;;;;;;;;12.80;99.90;;;;;;5083303;28;19956;-73
2023/09/20 01:34:14;;;;;;;;;;;12.80;99.90;;;;;;5082710;28;19925;-74
2023/09/20 01:36:41;;;;;;;;;;;12.70;99.90;;;;;;5078252;28;19924;-74
2023/09/20 01:39:09;;;;;;;;;;;12.70;99.90;;;;;;5082804;28;19952;-73
2023/09/20 01:41:36;;;;;;;;;;;12.70;99.90;;;;;;5083193;28;19932;-73
2023/09/20 01:44:03;;;;;;;;;;;12.60;99.90;;;;;;5082821;28;19960;-73
2023/09/20 01:46:30;;;;;;;;;;;12.60;99.90;;;;;;5082780;28;19920;-72
2023/09/20 01:48:58;;;;;;;;;;;12.70;99.90;;;;;;5083121;28;19983;-72
2023/09/20 01:51:25;;;;;;;;;;;12.60;99.90;;;;;;5081238;28;19967;-73
2023/09/20 01:53:51;;;;;;;;;;;12.60;99.90;;;;;;5079512;28;19920;-73
2023/09/20 01:56:21;;;;;;;;;;;12.60;99.90;;;;;;5082802;28;19920;-72
2023/09/20 01:58:49;;;;;;;;;;;12.60;99.90;;;;;;5083041;28;19921;-73
2023/09/20 02:01:17;;;;;;;;;;;12.50;99.90;;;;;;5084296;28;19974;-72
2023/09/20 02:03:43;;;;;;;;;;;12.50;99.90;;;;;;5086377;28;19921;-73
2023/09/20 02:06:10;;;;;;;;;;;12.50;99.90;;;;;;5086337;28;19995;-73
2023/09/20 02:08:37;;;;;;;;;;;12.50;99.90;;;;;;5086046;28;19942;-73
2023/09/20 02:11:04;;;;;;;;;;;12.50;99.90;;;;;;5086327;28;19987;-73
2023/09/20 02:13:32;;;;;;;;;;;12.40;99.90;;;;;;5086160;28;19945;-73
2023/09/20 02:16:00;;;;;;;;;;;12.40;99.90;;;;;;5086138;28;20095;-73
2023/09/20 02:18:26;;;;;;;;;;;12.30;99.90;;;;;;5086929;28;19943;-73
2023/09/20 02:20:55;;;;;;;;;;;12.30;99.90;;;;;;5086652;28;19927;-73
2023/09/20 02:23:22;;;;;;;;;;;12.20;99.90;;;;;;5094806;28;19920;-73
2023/09/20 02:25:48;;;;;;;;;;;12.20;99.90;;;;;;5085936;28;19991;-73
2023/09/20 02:28:15;;;;;;;;;;;12.20;99.90;;;;;;5086064;28;20109;-73
2023/09/20 02:30:43;;;;;;;;;;;12.10;99.90;;;;;;5086052;28;19977;-73
2023/09/20 02:33:14;;;;;;;;;;;12.00;99.90;;;;;;5085771;28;20213;-73
2023/09/20 02:35:41;;;;;;;;;;;12.00;99.90;;;;;;5080993;28;20140;-73
2023/09/20 02:38:09;;;;;;;;;;;12.00;99.90;;;;;;5085854;28;19951;-73
2023/09/20 02:40:36;;;;;;;;;;;11.90;99.90;;;;;;5085869;28;19928;-73
2023/09/20 02:43:04;;;;;;;;;;;11.90;99.90;;;;;;5087425;28;19954;-73
2023/09/20 02:45:33;;;;;;;;;;;11.90;99.90;;;;;;5090107;28;19922;-73
2023/09/20 02:48:03;;;;;;;;;;;11.90;99.90;;;;;;5085715;28;19987;-73
2023/09/20 02:50:30;;;;;;;;;;;11.90;99.90;;;;;;5092352;28;19920;-73
2023/09/20 02:52:56;;;;;;;;;;;12.00;99.90;;;;;;5088198;28;19921;-72
2023/09/20 02:55:23;;;;;;;;;;;11.90;99.90;;;;;;5086433;28;19921;-73
2023/09/20 02:57:50;;;;;;;;;;;11.90;99.90;;;;;;5089266;28;20158;-73
2023/09/20 03:00:18;;;;;;;;;;;11.90;99.90;;;;;;5085447;28;19955;-72
2023/09/20 03:02:45;;;;;;;;;;;11.90;99.90;;;;;;5085372;28;19927;-72
2023/09/20 03:05:15;;;;;;;;;;;11.90;99.90;;;;;;5087695;28;20229;-73
2023/09/20 03:07:44;;;;;;;;;;;11.90;99.90;;;;;;5080513;28;20117;-73
2023/09/20 03:10:12;;;;;;;;;;;11.90;99.90;;;;;;5090051;28;19955;-73
2023/09/20 03:12:41;;;;;;;;;;;11.90;99.90;;;;;;5088171;28;20141;-73
2023/09/20 03:15:10;;;;;;;;;;;11.90;99.90;;;;;;5085641;28;19983;-73
2023/09/20 03:17:37;;;;;;;;;;;11.80;99.90;;;;;;5084915;28;20274;-73
2023/09/20 03:20:09;;;;;;;;;;;11.90;99.90;;;;;;5084768;28;20206;-74
2023/09/20 03:22:38;;;;;;;;;;;11.80;99.90;;;;;;5084766;28;19929;-73
2023/09/20 03:25:05;;;;;;;;;;;11.80;99.90;;;;;;5084689;28;19942;-73
2023/09/20 03:27:32;;;;;;;;;;;11.80;99.90;;;;;;5084676;28;19920;-73
2023/09/20 03:29:59;;;;;;;;;;;11.80;99.90;;;;;;5085859;28;19920;-73
2023/09/20 03:32:26;;;;;;;;;;;11.80;99.90;;;;;;5086411;28;20206;-73
2023/09/20 03:34:56;;;;;;;;;;;11.90;99.90;;;;;;5084550;28;19921;-73
2023/09/20 03:37:22;;;;;;;;;;;11.90;99.90;;;;;;5084377;28;19920;-73
2023/09/20 03:39:51;;;;;;;;;;;11.90;99.90;;;;;;5084850;28;19920;-73
2023/09/20 03:42:17;;;;;;;;;;;11.90;99.90;;;;;;5081213;28;19926;-73
2023/09/20 03:44:45;;;;;;;;;;;11.90;99.90;;;;;;5084431;28;19920;-73
2023/09/20 03:47:12;;;;;;;;;;;11.90;99.90;;;;;;5089189;28;20222;-73
2023/09/20 03:49:39;;;;;;;;;;;11.90;99.90;;;;;;5084135;28;19920;-73
2023/09/20 03:52:05;;;;;;;;;;;11.90;99.90;;;;;;5084238;28;19921;-73
2023/09/20 03:54:32;;;;;;;;;;;11.90;99.90;;;;;;5083707;28;20125;-73
2023/09/20 03:57:00;;;;;;;;;;;11.90;99.90;;;;;;5084219;28;19932;-73
2023/09/20 03:59:27;;;;;;;;;;;11.90;99.90;;;;;;5084165;28;19951;-73
2023/09/20 04:01:53;;;;;;;;;;;11.90;99.90;;;;;;5084070;28;19920;-72
2023/09/20 04:04:20;;;;;;;;;;;11.80;99.90;;;;;;5083953;28;19952;-73
2023/09/20 04:06:47;;;;;;;;;;;11.80;99.90;;;;;;5087511;28;20143;-73
2023/09/20 04:09:13;;;;;;;;;;;11.80;99.90;;;;;;5083560;28;19958;-72
2023/09/20 04:11:41;;;;;;;;;;;11.80;99.90;;;;;;5084238;28;19975;-73
2023/09/20 04:14:09;;;;;;;;;;;11.80;99.90;;;;;;5083494;28;19951;-72
2023/09/20 04:16:36;;;;;;;;;;;11.80;99.90;;;;;;5083405;28;19950;-73
2023/09/20 04:19:04;;;;;;;;;;;11.80;99.90;;;;;;5083815;28;19967;-73
2023/09/20 04:21:30;;;;;;;;;;;11.80;99.90;;;;;;5083918;28;19943;-73
2023/09/20 04:23:58;;;;;;;;;;;11.70;99.90;;;;;;5083076;28;20285;-73
2023/09/20 04:26:25;;;;;;;;;;;11.70;99.90;;;;;;5087128;28;20113;-73
2023/09/20 04:28:52;;;;;;;;;;;11.70;99.90;;;;;;5084030;28;19986;-73
2023/09/20 04:31:20;;;;;;;;;;;11.70;99.90;;;;;;5083762;28;20051;-73
2023/09/20 04:33:47;;;;;;;;;;;11.70;99.90;;;;;;5092410;28;19924;-72
2023/09/20 04:36:14;;;;;;;;;;;11.60;99.90;;;;;;5083491;28;20206;-72
2023/09/20 04:38:41;;;;;;;;;;;11.60;99.90;;;;;;5087078;28;19952;-72
2023/09/20 04:41:11;;;;;;;;;;;11.60;99.90;;;;;;5092272;28;19925;-72
2023/09/20 04:43:38;;;;;;;;;;;11.60;99.90;;;;;;5085977;28;19984;-73
2023/09/20 04:46:04;;;;;;;;;;;11.60;99.90;;;;;;5082353;28;19920;-73
2023/09/20 04:48:32;;;;;;;;;;;11.60;99.90;;;;;;5083797;28;19926;-72
2023/09/20 04:50:59;;;;;;;;;;;11.50;99.90;;;;;;5083285;28;19952;-72
2023/09/20 04:53:26;;;;;;;;;;;11.50;99.90;;;;;;5083665;28;19983;-73
2023/09/20 04:55:53;;;;;;;;;;;11.60;99.90;;;;;;5083440;28;19921;-73
2023/09/20 04:58:20;;;;;;;;;;;11.60;99.90;;;;;;5083607;28;20117;-73
2023/09/20 05:00:48;;;;;;;;;;;11.50;99.90;;;;;;5083312;28;19925;-72
2023/09/20 05:03:15;;;;;;;;;;;11.50;99.90;;;;;;5083714;28;19920;-73
2023/09/20 05:05:43;;;;;;;;;;;11.50;99.90;;;;;;5083161;28;19920;-73
2023/09/20 05:08:10;;;;;;;;;;;11.50;99.90;;;;;;5078987;28;19920;-72
2023/09/20 05:10:37;;;;;;;;;;;11.40;99.90;;;;;;5083043;28;19920;-72
2023/09/20 05:13:04;;;;;;;;;;;11.40;99.90;;;;;;5083396;28;19927;-72
2023/09/20 05:15:31;;;;;;;;;;;11.40;99.90;;;;;;5082605;28;19920;-72
2023/09/20 05:17:58;;;;;;;;;;;11.40;99.90;;;;;;5083387;28;20181;-72
2023/09/20 05:20:26;;;;;;;;;;;11.40;99.90;;;;;;5083450;28;19927;-73
2023/09/20 05:22:54;;;;;;;;;;;11.40;99.90;;;;;;5083375;28;19920;-73
2023/09/20 05:25:21;;;;;;;;;;;11.40;99.90;;;;;;5082749;28;19995;-75
2023/09/20 05:27:48;;;;;;;;;;;11.40;99.90;;;;;;5083178;28;19927;-73
2023/09/20 05:30:16;;;;;;;;;;;11.50;99.90;;;;;;5088006;28;19966;-73
2023/09/20 05:32:43;;;;;;;;;;;11.40;99.90;;;;;;5083021;28;20256;-73
2023/09/20 05:35:11;;;;;;;;;;;11.50;99.90;;;;;;5084520;28;19974;-73
2023/09/20 05:37:39;;;;;;;;;;;11.50;99.90;;;;;;5086685;28;19920;-72
2023/09/20 05:40:13;;;;;;;;;;;11.50;99.90;;;;;;5086615;28;20141;-72
2023/09/20 05:42:40;;;;;;;;;;;11.50;99.90;;;;;;5086539;28;19920;-72
2023/09/20 05:45:07;;;;;;;;;;;11.50;99.90;;;;;;5091585;28;19924;-72
2023/09/20 05:47:35;;;;;;;;;;;11.60;99.90;;;;;;5086515;28;20142;-72
2023/09/20 05:50:02;;;;;;;;;;;11.50;99.90;;;;;;5086509;28;20206;-72
2023/09/20 05:52:29;;;;;;;;;;;11.50;99.90;;;;;;5082019;28;20218;-71
2023/09/20 05:54:56;;;;;;;;;;;11.40;99.90;;;;;;5085970;28;19920;-70
2023/09/20 05:57:27;;;;;;;;;;;11.40;99.90;;;;;;5086146;28;19921;-71
2023/09/20 05:59:54;;;;;;;;;;;11.40;99.90;;;;;;5085925;28;19952;-72
2023/09/20 06:02:21;;;;;;;;;;;11.40;99.90;;;;;;5084900;28;19920;-71
2023/09/20 06:04:48;;;;;;;;;;;11.40;99.90;;;;;;5086369;28;20233;-72
2023/09/20 06:07:15;;;;;;;;;;;11.40;99.90;;;;;;5091462;28;19948;-72
2023/09/20 06:09:42;;;;;;;;;;;11.40;99.90;;;;;;5090038;28;19957;-72
2023/09/20 06:12:09;;;;;;;;;;;11.40;99.90;;;;;;5097193;28;20008;-72
2023/09/20 06:14:37;;;;;;;;;;;11.50;99.90;;;;;;5085383;28;20321;-72
2023/09/20 06:17:04;;;;;;;;;;;11.50;99.90;;;;;;5086192;28;20185;-72
2023/09/20 06:19:30;;;;;;;;;;;11.60;99.90;;;;;;5086354;28;20109;-72
2023/09/20 06:21:57;;;;;;;;;;;11.60;99.90;;;;;;5089631;28;19927;-71
2023/09/20 06:24:23;;;;;;;;;;;11.70;99.90;;;;;;5085917;28;20257;-72
2023/09/20 06:26:50;;;;;;;;;;;11.70;99.90;;;;;;5086125;28;19988;-72
2023/09/20 06:29:17;;;;;;;;;;;11.80;99.90;;;;;;5082558;28;20154;-72
2023/09/20 06:31:45;;;;;;;;;;;11.90;99.90;;;;;;5085706;28;19984;-72
2023/09/20 06:34:17;;;;;;;;;;;11.90;99.90;;;;;;5086728;28;19952;-72
2023/09/20 06:36:44;;;;;;;;;;;12.00;99.90;;;;;;5084565;28;19927;-72
2023/09/20 06:39:11;;;;;;;;;;;12.10;99.90;;;;;;5085779;28;19952;-72
2023/09/20 06:41:41;;;;;;;;;;;12.20;99.90;;;;;;5085620;28;19983;-72
2023/09/20 06:44:08;;;;;;;;;;;12.30;99.90;;;;;;5085745;28;19927;-72
2023/09/20 06:46:35;;;;;;;;;;;12.40;99.90;;;;;;5084438;28;20308;-72
2023/09/20 06:49:03;;;;;;;;;;;12.40;99.90;;;;;;5085550;28;20149;-72
2023/09/20 06:51:30;;;;;;;;;;;12.50;99.90;;;;;;5088378;28;20253;-72
2023/09/20 06:53:58;;;;;;;;;;;12.70;99.90;;;;;;5085349;28;19988;-70
2023/09/20 06:56:25;;;;;;;;;;;12.80;99.90;;;;;;5084932;28;20107;-72
2023/09/20 06:58:53;;;;;;;;;;;12.90;99.90;;;;;;5085155;28;19955;-72
2023/09/20 07:01:19;;;;;;;;;;;13.10;99.90;;;;;;5084974;28;20151;-72
2023/09/20 07:03:46;;;;;;;;;;;13.20;99.90;;;;;;5084888;28;19952;-72
2023/09/20 07:06:14;;;;;;;;;;;13.30;99.90;;;;;;5085110;28;19920;-74
2023/09/20 07:08:42;;;;;;;;;;;13.50;99.90;;;;;;5079771;28;19948;-72
2023/09/20 07:11:11;;;;;;;;;;;13.60;99.90;;;;;;5079620;28;19928;-72
2023/09/20 07:13:37;;;;;;;;;;;13.80;99.90;;;;;;5084577;28;19984;-73
2023/09/20 07:16:05;;;;;;;;;;;13.80;99.90;;;;;;5084222;28;19920;-72
2023/09/20 07:18:32;;;;;;;;;;;13.90;99.90;;;;;;5084916;28;19920;-72
2023/09/20 07:20:58;;;;;;;;;;;14.00;99.90;;;;;;5084556;28;19920;-72
2023/09/20 07:23:29;;;;;;;;;;;14.20;99.90;;;;;;5084021;28;20256;-72
2023/09/20 07:25:56;;;;;;;;;;;14.30;99.90;;;;;;5084370;28;19921;-72
2023/09/20 07:28:24;;;;;;;;;;;14.40;99.90;;;;;;5084307;28;19921;-72
2023/09/20 07:30:50;;;;;;;;;;;14.60;99.90;;;;;;5084472;28;20206;-72
2023/09/20 07:33:19;;;;;;;;;;;14.60;99.90;;;;;;5084473;28;20260;-71
2023/09/20 07:35:48;;;;;;;;;;;14.70;99.90;;;;;;5083697;28;19944;-72
2023/09/20 07:38:24;;;;;;;;;;;14.80;99.90;;;;;;5084080;28;19920;-72
2023/09/20 07:40:53;;;;;;;;;;;14.90;99.90;;;;;;5087708;28;19959;-72
2023/09/20 07:43:20;;;;;;;;;;;15.00;99.90;;;;;;5090897;28;19920;-72
2023/09/20 07:45:49;;;;;;;;;;;15.20;99.90;;;;;;5084181;28;19958;-72
2023/09/20 07:48:17;;;;;;;;;;;15.30;99.90;;;;;;5084104;28;20179;-71
2023/09/20 07:50:49;;;;;;;;;;;15.40;99.90;;;;;;5082956;28;20210;-72
2023/09/20 07:53:16;;;;;;;;;;;15.40;99.90;;;;;;5083233;28;19928;-72
2023/09/20 07:55:44;;;;;;;;;;;15.50;99.90;;;;;;5084044;28;19955;-72
2023/09/20 07:58:13;;;;;;;;;;;15.60;99.90;;;;;;5088761;28;19921;-73
2023/09/20 08:00:41;;;;;;;;;;;15.70;99.90;;;;;;5083613;28;19957;-73
2023/09/20 08:03:08;;;;;;;;;;;15.70;99.90;;;;;;5083005;28;19951;-73
2023/09/20 08:05:35;;;;;;;;;;;15.80;99.90;;;;;;5083430;28;19920;-73
2023/09/20 08:08:02;;;;;;;;;;;15.80;99.90;;;;;;5083477;28;20158;-72
2023/09/20 08:10:29;;;;;;;;;;;16.00;99.90;;;;;;5083960;28;19963;-72
2023/09/20 08:12:57;;;;;;;;;;;16.10;99.90;;;;;;5084032;28;20117;-72
2023/09/20 08:15:26;;;;;;;;;;;16.20;99.90;;;;;;5088128;28;20237;-72
2023/09/20 08:20:39;;;;;;;;;;;16.50;99.90;;;;;;5083488;28;20118;-71
2023/09/20 09:01:33;;;;;;;;;;;18.10;99.90;;;;;;5078964;28;19938;-71
2023/09/20 09:04:01;;;;;;;;;;;18.10;99.90;;;;;;5083179;28;19963;-71
2023/09/20 09:06:28;;;;;;;;;;;18.20;99.90;;;;;;5079020;28;19951;-72
2023/09/20 09:08:54;;;;;;;;;;;18.20;99.90;;;;;;5083118;28;19958;-72
2023/09/20 09:11:23;;;;;;;;;;;18.30;99.90;;;;;;5086792;28;20214;-72
2023/09/20 09:13:50;;;;;;;;;;;18.40;99.90;;;;;;5083502;28;19921;-72
2023/09/20 09:16:19;;;;;;;;;;;18.50;99.90;;;;;;5083323;28;19956;-72
2023/09/20 09:18:46;;;;;;;;;;;18.60;99.90;;;;;;5087045;28;19983;-72
2023/09/20 09:21:14;;;;;;;;;;;18.70;99.90;;;;;;5090248;28;20003;-72
2023/09/20 09:23:45;;;;;;;;;;;18.90;99.90;;;;;;5081983;28;20206;-72
2023/09/20 09:26:12;;;;;;;;;;;19.00;99.90;;;;;;5091937;28;20157;-70
2023/09/20 09:28:40;;;;;;;;;;;19.10;99.90;;;;;;5093376;28;19921;-72
2023/09/20 09:31:08;;;;;;;;;;;19.20;99.90;;;;;;5090419;28;19983;-71
2023/09/20 09:33:35;;;;;;;;;;;19.20;99.90;;;;;;5086892;28;19921;-73
2023/09/20 09:36:03;;;;;;;;;;;19.30;99.90;;;;;;5095461;28;19920;-70
2023/09/20 09:38:33;;;;;;;;;;;19.50;99.90;;;;;;5086177;28;19951;-72
2023/09/20 09:41:00;;;;;;;;;;;19.60;99.90;;;;;;5084157;28;19975;-72
2023/09/20 09:43:27;;;;;;;;;;;19.70;99.90;;;;;;5086560;28;19943;-72
2023/09/20 09:45:54;;;;;;;;;;;19.80;99.90;;;;;;5086800;28;20137;-72
2023/09/20 09:48:22;;;;;;;;;;;19.90;99.90;;;;;;5086409;28;19920;-72
2023/09/20 09:50:49;;;;;;;;;;;20.00;99.90;;;;;;5086442;28;19921;-72
2023/09/20 09:53:16;;;;;;;;;;;20.10;99.90;;;;;;5089239;28;19924;-72
2023/09/20 09:55:45;;;;;;;;;;;20.20;99.90;;;;;;5085816;28;19959;-71
2023/09/20 09:58:12;;;;;;;;;;;20.30;99.90;;;;;;5083214;28;20023;-72
2023/09/20 10:00:40;;;;;;;;;;;20.30;99.90;;;;;;5084733;28;19928;-72
2023/09/20 10:03:11;;;;;;;;;;;20.30;99.90;;;;;;5084918;28;19932;-71
2023/09/20 10:05:39;;;;;;;;;;;20.50;99.90;;;;;;5090219;28;19952;-72
2023/09/20 10:08:07;;;;;;;;;;;20.70;99.90;;;;;;5085965;28;19991;-72
2023/09/20 10:10:33;;;;;;;;;;;20.90;99.90;;;;;;5085573;28;20091;-72
2023/09/20 10:13:03;;;;;;;;;;;20.90;99.90;;;;;;5085684;28;19987;-71
2023/09/20 10:15:32;;;;;;;;;;;20.90;99.90;;;;;;5085586;28;20022;-72
2023/09/20 10:18:00;;;;;;;;;;;20.90;99.90;;;;;;5085637;28;20136;-71
2023/09/20 10:20:41;;;;;;;;;;;21.00;99.90;;;;;;5085750;28;19920;-72
2023/09/20 10:23:08;;;;;;;;;;;21.00;99.90;;;;;;5085554;28;19980;-71
2023/09/20 10:25:36;;;;;;;;;;;21.10;99.90;;;;;;5085785;28;19952;-72
2023/09/20 10:28:05;;;;;;;;;;;21.20;99.90;;;;;;5085614;28;19921;-71
2023/09/20 10:30:34;;;;;;;;;;;21.20;99.90;;;;;;5084724;28;19921;-71
2023/09/20 10:33:04;;;;;;;;;;;21.30;99.90;;;;;;5085929;28;19920;-72
2023/09/20 10:35:31;;;;;;;;;;;21.30;99.90;;;;;;5085169;28;19927;-71
2023/09/20 10:38:20;;;;;;;;;;;21.20;99.90;;;;;;5085357;28;19927;-72
2023/09/20 10:40:59;;;;;;;;;;;21.20;99.90;;;;;;5081494;28;19916;-71
2023/09/20 10:43:43;;;;;;;;;;;21.40;99.90;;;;;;5083959;28;19983;-72
2023/09/20 10:46:10;;;;;;;;;;;21.60;99.90;;;;;;5085434;28;19952;-71
2023/09/20 10:48:41;;;;;;;;;;;21.70;99.90;;;;;;5085629;28;19927;-71
2023/09/20 10:51:07;;;;;;;;;;;21.80;99.90;;;;;;5085510;28;20154;-71
2023/09/20 10:53:52;;;;;;;;;;;21.90;99.90;;;;;;5085296;28;19983;-72
2023/09/20 10:56:34;;;;;;;;;;;22.00;99.90;;;;;;5082311;28;19962;-71
2023/09/20 10:59:06;;;;;;;;;;;22.20;99.90;;;;;;5084086;28;19987;-72
2023/09/20 11:01:35;;;;;;;;;;;22.30;99.90;;;;;;5085357;28;19920;-72
2023/09/20 11:04:05;;;;;;;;;;;22.50;99.90;;;;;;5085346;28;19983;-71
2023/09/20 11:06:32;;;;;;;;;;;22.70;99.90;;;;;;5084849;28;19952;-71
2023/09/20 11:09:00;;;;;;;;;;;22.70;99.90;;;;;;5085219;28;20126;-71
2023/09/20 11:11:28;;;;;;;;;;;22.90;99.90;;;;;;5089822;28;19928;-71
2023/09/20 11:13:55;;;;;;;;;;;23.00;99.90;;;;;;5089790;28;19992;-72
2023/09/20 11:16:25;;;;;;;;;;;23.10;99.90;;;;;;5085959;28;19921;-72
2023/09/20 11:18:52;;;;;;;;;;;23.20;99.90;;;;;;5083691;28;19920;-72
2023/09/20 11:21:19;;;;;;;;;;;23.30;99.90;;;;;;5084454;28;20165;-72
2023/09/20 11:23:46;;;;;;;;;;;23.40;99.90;;;;;;5084576;28;19920;-73
2023/09/20 11:26:15;;;;;;;;;;;23.50;99.90;;;;;;5084506;28;19927;-74
2023/09/20 11:28:42;;;;;;;;;;;23.60;99.90;;;;;;5084198;28;19934;-73
2023/09/20 11:31:22;;;;;;;;;;;23.80;99.90;;;;;;5089515;28;19966;-72
2023/09/20 11:33:57;;;;;;;;;;;23.90;99.90;;;;;;5077181;28;19956;-75
2023/09/20 11:36:23;;;;;;;;;;;23.90;99.90;;;;;;5081824;28;19920;-73
2023/09/20 11:38:50;;;;;;;;;;;23.70;99.90;;;;;;5084633;28;19920;-72
2023/09/20 11:41:19;;;;;;;;;;;23.50;99.90;;;;;;5083834;28;20404;-72
2023/09/20 11:43:46;;;;;;;;;;;23.50;99.90;;;;;;5084169;28;20258;-73
2023/09/20 11:46:12;;;;;;;;;;;23.50;99.90;;;;;;5083735;28;19958;-73
2023/09/20 11:48:39;;;;;;;;;;;23.60;99.90;;;;;;5083596;28;20697;-73
2023/09/20 11:51:10;;;;;;;;;;;23.80;99.90;;;;;;5083941;28;19921;-72
2023/09/20 11:53:36;;;;;;;;;;;24.00;99.90;;;;;;5084017;28;20099;-73
2023/09/20 11:56:04;;;;;;;;;;;24.00;99.90;;;;;;5090513;28;19926;-72
2023/09/20 11:58:33;;;;;;;;;;;24.20;99.90;;;;;;5083828;28;19982;-72
2023/09/20 12:01:00;;;;;;;;;;;24.40;99.90;;;;;;5083473;28;19943;-73
2023/09/20 12:03:28;;;;;;;;;;;24.60;99.90;;;;;;5083805;28;19924;-72
2023/09/20 12:05:54;;;;;;;;;;;24.70;99.90;;;;;;5083849;28;19920;-73
2023/09/20 12:08:30;;;;;;;;;;;24.80;99.90;;;;;;5083956;28;20026;-71
2023/09/20 12:10:57;;;;;;;;;;;24.80;99.90;;;;;;5083776;28;20256;-72
2023/09/20 12:13:23;;;;;;;;;;;24.70;99.90;;;;;;5083555;28;20185;-73
2023/09/20 12:15:51;;;;;;;;;;;24.60;99.90;;;;;;5083577;28;19920;-73
2023/09/20 12:18:17;;;;;;;;;;;24.50;99.90;;;;;;5080560;28;19975;-72
2023/09/20 12:20:44;;;;;;;;;;;24.50;99.90;;;;;;5088375;28;20099;-73
2023/09/20 12:23:14;;;;;;;;;;;24.40;99.90;;;;;;5083748;28;19956;-72
2023/09/20 12:25:42;;;;;;;;;;;24.30;99.90;;;;;;5082780;28;19920;-72
2023/09/20 12:28:09;;;;;;;;;;;24.30;99.90;;;;;;5082877;28;20125;-72
2023/09/20 12:30:36;;;;;;;;;;;24.30;99.90;;;;;;5083348;28;19921;-72
2023/09/20 12:33:02;;;;;;;;;;;24.30;99.90;;;;;;5081169;28;19924;-72
2023/09/20 12:35:30;;;;;;;;;;;24.30;99.90;;;;;;5083572;28;19956;-72
2023/09/20 12:37:57;;;;;;;;;;;24.30;99.90;;;;;;5083543;28;19958;-72
2023/09/20 12:40:24;;;;;;;;;;;24.10;99.90;;;;;;5083366;28;20225;-72
2023/09/20 12:42:52;;;;;;;;;;;24.10;99.90;;;;;;5083594;28;19925;-72
2023/09/20 12:45:19;;;;;;;;;;;24.00;99.90;;;;;;5089463;28;19956;-72
2023/09/20 12:47:45;;;;;;;;;;;24.00;99.90;;;;;;5087320;28;19927;-72
2023/09/20 12:50:13;;;;;;;;;;;24.00;99.90;;;;;;5084179;28;19928;-72
2023/09/20 12:52:39;;;;;;;;;;;24.00;99.90;;;;;;5084332;28;19921;-72
2023/09/20 12:55:06;;;;;;;;;;;24.10;99.90;;;;;;5072636;28;19921;-72
2023/09/20 12:57:33;;;;;;;;;;;24.10;99.90;;;;;;5073417;28;19921;-72
2023/09/20 13:00:02;;;;;;;;;;;24.10;99.90;;;;;;5080302;28;19922;-72
2023/09/20 13:02:29;;;;;;;;;;;24.40;99.90;;;;;;5082595;28;19921;-72
2023/09/20 13:04:59;;;;;;;;;;;24.80;99.90;;;;;;5078391;28;19988;-73
2023/09/20 13:07:26;;;;;;;;;;;25.10;99.90;;;;;;5079774;28;20228;-72
2023/09/20 13:09:53;;;;;;;;;;;25.40;99.90;;;;;;5081700;28;19929;-72
2023/09/20 13:12:20;;;;;;;;;;;25.80;99.90;;;;;;5082250;28;19920;-73
2023/09/20 13:14:47;;;;;;;;;;;26.10;99.90;;;;;;5082776;28;19978;-73
2023/09/20 13:17:16;;;;;;;;;;;26.20;99.90;;;;;;5076955;28;19921;-71
2023/09/20 13:19:43;;;;;;;;;;;26.40;99.90;;;;;;5077065;28;20195;-71
2023/09/20 13:22:11;;;;;;;;;;;26.60;99.90;;;;;;5074328;28;19948;-72
2023/09/20 13:24:40;;;;;;;;;;;26.60;99.90;;;;;;5076873;28;19963;-72
2023/09/20 13:27:07;;;;;;;;;;;26.70;99.90;;;;;;5081205;28;19921;-72
2023/09/20 13:29:34;;;;;;;;;;;26.80;99.90;;;;;;5077004;28;20012;-73
2023/09/20 13:32:01;;;;;;;;;;;27.00;99.90;;;;;;5076924;28;19928;-72
2023/09/20 13:34:29;;;;;;;;;;;27.20;99.90;;;;;;5078757;28;19921;-73
2023/09/20 13:36:56;;;;;;;;;;;27.40;99.90;;;;;;5070230;28;19960;-72
2023/09/20 13:39:23;;;;;;;;;;;27.50;99.90;;;;;;5075901;28;19920;-72
2023/09/20 13:41:53;;;;;;;;;;;27.60;99.90;;;;;;5077213;28;19952;-73
2023/09/20 13:44:20;;;;;;;;;;;27.70;99.90;;;;;;5071889;28;20117;-72
2023/09/20 13:46:47;;;;;;;;;;;27.70;99.90;;;;;;5081728;28;19926;-72
2023/09/20 13:49:15;;;;;;;;;;;27.50;99.90;;;;;;5085161;28;19920;-71
2023/09/20 13:51:43;;;;;;;;;;;27.50;99.90;;;;;;5076664;28;19938;-71
2023/09/20 13:54:10;;;;;;;;;;;27.60;99.90;;;;;;5081862;28;20214;-72
2023/09/20 13:56:38;;;;;;;;;;;27.50;99.90;;;;;;5082960;28;19940;-71
2023/09/20 13:59:04;;;;;;;;;;;27.70;99.90;;;;;;5084499;28;19931;-72
2023/09/20 14:01:32;;;;;;;;;;;27.80;99.90;;;;;;5085388;28;19928;-72
2023/09/20 14:03:59;;;;;;;;;;;27.90;99.90;;;;;;5085823;28;19920;-72
2023/09/20 14:06:25;;;;;;;;;;;27.90;99.90;;;;;;5085538;28;19926;-71
2023/09/20 14:08:54;;;;;;;;;;;27.60;99.90;;;;;;5082156;28;19983;-72
2023/09/20 14:11:21;;;;;;;;;;;27.60;99.90;;;;;;5080739;28;19920;-72
2023/09/20 14:13:48;;;;;;;;;;;27.50;99.90;;;;;;5085324;28;19967;-73
2023/09/20 14:16:16;;;;;;;;;;;27.70;99.90;;;;;;5088162;28;19927;-72
2023/09/20 14:18:43;;;;;;;;;;;27.80;99.90;;;;;;5084244;28;20225;-74
2023/09/20 14:21:11;;;;;;;;;;;27.80;99.90;;;;;;5085725;28;19924;-74
2023/09/20 14:23:37;;;;;;;;;;;27.70;99.90;;;;;;5094221;28;19962;-73
2023/09/20 14:26:11;;;;;;;;;;;27.70;99.90;;;;;;5093983;28;19959;-72
2023/09/20 14:28:40;;;;;;;;;;;27.70;99.90;;;;;;5085888;28;19924;-72
2023/09/20 14:31:13;;;;;;;;;;;27.70;99.90;;;;;;5085659;28;19958;-72
2023/09/20 14:33:40;;;;;;;;;;;27.70;99.90;;;;;;5085726;28;20176;-72
2023/09/20 14:36:09;;;;;;;;;;;27.60;99.90;;;;;;5085177;28;20280;-72
2023/09/20 14:38:35;;;;;;;;;;;27.70;99.90;;;;;;5085127;28;19921;-72
2023/09/20 14:41:03;;;;;;;;;;;27.70;99.90;;;;;;5085459;28;20036;-72
2023/09/20 14:43:31;;;;;;;;;;;27.80;99.90;;;;;;5085229;28;19983;-71
2023/09/20 14:45:58;;;;;;;;;;;27.80;99.90;;;;;;5085029;28;19928;-72
2023/09/20 14:48:25;;;;;;;;;;;27.80;99.90;;;;;;5085393;28;19959;-72
2023/09/20 14:50:52;;;;;;;;;;;27.90;99.90;;;;;;5088468;28;19931;-72
2023/09/20 14:53:19;;;;;;;;;;;27.90;99.90;;;;;;5090123;28;19920;-72
2023/09/20 14:55:47;;;;;;;;;;;28.00;99.90;;;;;;5088251;28;20207;-72
2023/09/20 14:58:15;;;;;;;;;;;27.90;99.90;;;;;;5084929;28;19999;-72
2023/09/20 15:00:44;;;;;;;;;;;27.90;99.90;;;;;;5080108;28;19920;-72